sensor_id;sensor_type;location;lat;lon;timestamp;P1;durP1;ratioP1;P2;durP2;ratioP2
5393;SDS011;2720;52.396;10.064;2023-04-05T00:01:52;2.60;;;1.48;;
5393;SDS011;2720;52.396;10.064;2023-04-05T00:04:20;1.95;;;1.83;;
5393;SDS011;2720;52.396;10.064;2023-04-05T00:06:49;6.32;;;2.00;;
5393;SDS011;2720;52.396;10.064;2023-04-05T00:09:17;4.43;;;2.33;;
5393;SDS011;2720;52.396;10.064;2023-04-05T00:11:45;3.67;;;2.40;;
5393;SDS011;2720;52.396;10.064;2023-04-05T00:14:12;5.30;;;2.67;;
5393;SDS011;2720;52.396;10.064;2023-04-05T00:16:39;4.78;;;2.17;;
5393;SDS011;2720;52.396;10.064;2023-04-05T00:19:07;8.75;;;2.28;;
5393;SDS011;2720;52.396;10.064;2023-04-05T00:21:36;4.00;;;2.30;;
5393;SDS011;2720;52.396;10.064;2023-04-05T00:24:06;5.15;;;1.75;;
5393;SDS011;2720;52.396;10.064;2023-04-05T00:26:39;4.78;;;1.50;;
5393;SDS011;2720;52.396;10.064;2023-04-05T00:29:07;3.42;;;1.77;;
5393;SDS011;2720;52.396;10.064;2023-04-05T00:31:34;1.92;;;1.15;;
5393;SDS011;2720;52.396;10.064;2023-04-05T00:34:01;3.83;;;1.33;;
5393;SDS011;2720;52.396;10.064;2023-04-05T00:36:30;3.03;;;1.17;;
5393;SDS011;2720;52.396;10.064;2023-04-05T00:38:56;2.10;;;1.25;;
5393;SDS011;2720;52.396;10.064;2023-04-05T00:41:25;9.27;;;1.83;;
5393;SDS011;2720;52.396;10.064;2023-04-05T00:43:52;4.53;;;1.77;;
5393;SDS011;2720;52.396;10.064;2023-04-05T00:46:19;0.93;;;0.93;;
5393;SDS011;2720;52.396;10.064;2023-04-05T00:48:46;3.00;;;1.80;;
5393;SDS011;2720;52.396;10.064;2023-04-05T00:51:13;1.58;;;1.25;;
5393;SDS011;2720;52.396;10.064;2023-04-05T00:53:41;3.20;;;1.60;;
5393;SDS011;2720;52.396;10.064;2023-04-05T00:56:08;8.82;;;2.10;;
5393;SDS011;2720;52.396;10.064;2023-04-05T00:58:38;4.93;;;1.35;;
5393;SDS011;2720;52.396;10.064;2023-04-05T01:01:07;3.10;;;1.70;;
5393;SDS011;2720;52.396;10.064;2023-04-05T01:03:38;2.38;;;1.63;;
5393;SDS011;2720;52.396;10.064;2023-04-05T01:06:12;4.90;;;1.88;;
5393;SDS011;2720;52.396;10.064;2023-04-05T01:08:51;5.93;;;1.80;;
5393;SDS011;2720;52.396;10.064;2023-04-05T01:11:26;4.95;;;1.70;;
5393;SDS011;2720;52.396;10.064;2023-04-05T01:13:58;5.78;;;1.92;;
5393;SDS011;2720;52.396;10.064;2023-04-05T01:16:26;1.45;;;1.23;;
5393;SDS011;2720;52.396;10.064;2023-04-05T01:18:53;3.72;;;1.27;;
5393;SDS011;2720;52.396;10.064;2023-04-05T01:21:43;3.63;;;1.30;;
5393;SDS011;2720;52.396;10.064;2023-04-05T01:24:41;2.70;;;1.33;;
5393;SDS011;2720;52.396;10.064;2023-04-05T01:27:18;3.22;;;1.85;;
5393;SDS011;2720;52.396;10.064;2023-04-05T01:29:50;2.30;;;1.73;;
5393;SDS011;2720;52.396;10.064;2023-04-05T01:32:44;10.07;;;1.40;;
5393;SDS011;2720;52.396;10.064;2023-04-05T01:35:20;3.95;;;1.70;;
5393;SDS011;2720;52.396;10.064;2023-04-05T01:37:54;4.20;;;1.58;;
5393;SDS011;2720;52.396;10.064;2023-04-05T01:40:24;3.63;;;2.00;;
5393;SDS011;2720;52.396;10.064;2023-04-05T01:42:52;2.78;;;1.70;;
5393;SDS011;2720;52.396;10.064;2023-04-05T01:45:20;1.60;;;1.50;;
5393;SDS011;2720;52.396;10.064;2023-04-05T01:47:47;7.75;;;2.35;;
5393;SDS011;2720;52.396;10.064;2023-04-05T01:50:14;7.32;;;2.05;;
5393;SDS011;2720;52.396;10.064;2023-04-05T01:52:41;5.93;;;2.60;;
5393;SDS011;2720;52.396;10.064;2023-04-05T01:55:08;10.73;;;1.65;;
5393;SDS011;2720;52.396;10.064;2023-04-05T01:57:36;6.55;;;2.33;;
5393;SDS011;2720;52.396;10.064;2023-04-05T02:00:03;2.40;;;1.90;;
5393;SDS011;2720;52.396;10.064;2023-04-05T02:02:32;3.83;;;2.33;;
5393;SDS011;2720;52.396;10.064;2023-04-05T02:04:59;6.97;;;1.90;;
5393;SDS011;2720;52.396;10.064;2023-04-05T02:07:26;3.65;;;1.98;;
5393;SDS011;2720;52.396;10.064;2023-04-05T02:09:53;4.78;;;2.22;;
5393;SDS011;2720;52.396;10.064;2023-04-05T02:12:19;3.92;;;1.85;;
5393;SDS011;2720;52.396;10.064;2023-04-05T02:14:47;4.43;;;2.35;;
5393;SDS011;2720;52.396;10.064;2023-04-05T02:17:15;2.42;;;2.00;;
5393;SDS011;2720;52.396;10.064;2023-04-05T02:19:44;6.70;;;1.75;;
5393;SDS011;2720;52.396;10.064;2023-04-05T02:22:11;6.47;;;1.73;;
5393;SDS011;2720;52.396;10.064;2023-04-05T02:24:38;4.22;;;1.35;;
5393;SDS011;2720;52.396;10.064;2023-04-05T02:27:06;4.03;;;1.50;;
5393;SDS011;2720;52.396;10.064;2023-04-05T02:29:33;1.75;;;1.35;;
5393;SDS011;2720;52.396;10.064;2023-04-05T02:32:00;7.22;;;1.70;;
5393;SDS011;2720;52.396;10.064;2023-04-05T02:34:27;5.93;;;1.90;;
5393;SDS011;2720;52.396;10.064;2023-04-05T02:36:55;2.90;;;2.15;;
5393;SDS011;2720;52.396;10.064;2023-04-05T02:39:22;2.90;;;2.10;;
5393;SDS011;2720;52.396;10.064;2023-04-05T02:41:50;7.00;;;2.60;;
5393;SDS011;2720;52.396;10.064;2023-04-05T02:44:17;4.93;;;2.72;;
5393;SDS011;2720;52.396;10.064;2023-04-05T02:46:44;3.28;;;1.40;;
5393;SDS011;2720;52.396;10.064;2023-04-05T02:49:11;1.70;;;1.60;;
5393;SDS011;2720;52.396;10.064;2023-04-05T02:51:38;4.15;;;2.13;;
5393;SDS011;2720;52.396;10.064;2023-04-05T02:54:06;2.83;;;1.90;;
5393;SDS011;2720;52.396;10.064;2023-04-05T02:56:33;3.78;;;1.67;;
5393;SDS011;2720;52.396;10.064;2023-04-05T02:59:00;5.72;;;1.77;;
5393;SDS011;2720;52.396;10.064;2023-04-05T03:01:28;3.28;;;1.65;;
5393;SDS011;2720;52.396;10.064;2023-04-05T03:03:56;4.35;;;2.03;;
5393;SDS011;2720;52.396;10.064;2023-04-05T03:06:23;11.52;;;2.08;;
5393;SDS011;2720;52.396;10.064;2023-04-05T03:08:50;3.40;;;1.50;;
5393;SDS011;2720;52.396;10.064;2023-04-05T03:11:19;5.10;;;2.25;;
5393;SDS011;2720;52.396;10.064;2023-04-05T03:13:46;11.82;;;2.47;;
5393;SDS011;2720;52.396;10.064;2023-04-05T03:16:13;11.40;;;3.03;;
5393;SDS011;2720;52.396;10.064;2023-04-05T03:18:40;2.20;;;1.98;;
5393;SDS011;2720;52.396;10.064;2023-04-05T03:21:07;7.10;;;2.45;;
5393;SDS011;2720;52.396;10.064;2023-04-05T03:23:36;5.00;;;2.63;;
5393;SDS011;2720;52.396;10.064;2023-04-05T03:26:03;10.57;;;3.10;;
5393;SDS011;2720;52.396;10.064;2023-04-05T03:28:31;12.48;;;2.65;;
5393;SDS011;2720;52.396;10.064;2023-04-05T03:30:58;5.60;;;2.47;;
5393;SDS011;2720;52.396;10.064;2023-04-05T03:33:25;8.75;;;3.55;;
5393;SDS011;2720;52.396;10.064;2023-04-05T03:35:52;9.13;;;3.83;;
5393;SDS011;2720;52.396;10.064;2023-04-05T03:38:19;5.97;;;3.20;;
5393;SDS011;2720;52.396;10.064;2023-04-05T03:40:46;7.18;;;3.50;;
5393;SDS011;2720;52.396;10.064;2023-04-05T03:43:13;7.13;;;3.35;;
5393;SDS011;2720;52.396;10.064;2023-04-05T03:45:42;4.15;;;2.55;;
5393;SDS011;2720;52.396;10.064;2023-04-05T03:48:09;4.45;;;2.78;;
5393;SDS011;2720;52.396;10.064;2023-04-05T03:50:36;4.40;;;2.20;;
5393;SDS011;2720;52.396;10.064;2023-04-05T03:53:03;7.88;;;3.33;;
5393;SDS011;2720;52.396;10.064;2023-04-05T03:55:31;3.42;;;2.60;;
5393;SDS011;2720;52.396;10.064;2023-04-05T03:57:58;6.18;;;3.35;;
5393;SDS011;2720;52.396;10.064;2023-04-05T04:00:24;6.50;;;3.15;;
5393;SDS011;2720;52.396;10.064;2023-04-05T04:02:53;9.45;;;2.90;;
5393;SDS011;2720;52.396;10.064;2023-04-05T04:05:20;4.07;;;2.80;;
5393;SDS011;2720;52.396;10.064;2023-04-05T04:07:47;7.28;;;3.63;;
5393;SDS011;2720;52.396;10.064;2023-04-05T04:10:15;5.88;;;3.22;;
5393;SDS011;2720;52.396;10.064;2023-04-05T04:12:42;7.70;;;3.35;;
5393;SDS011;2720;52.396;10.064;2023-04-05T04:15:10;5.68;;;2.58;;
5393;SDS011;2720;52.396;10.064;2023-04-05T04:17:37;6.88;;;3.08;;
5393;SDS011;2720;52.396;10.064;2023-04-05T04:20:07;4.57;;;2.78;;
5393;SDS011;2720;52.396;10.064;2023-04-05T04:22:35;2.60;;;2.10;;
5393;SDS011;2720;52.396;10.064;2023-04-05T04:25:05;4.30;;;3.25;;
5393;SDS011;2720;52.396;10.064;2023-04-05T04:27:36;5.32;;;2.78;;
5393;SDS011;2720;52.396;10.064;2023-04-05T04:30:07;7.38;;;2.85;;
5393;SDS011;2720;52.396;10.064;2023-04-05T04:32:35;6.85;;;2.75;;
5393;SDS011;2720;52.396;10.064;2023-04-05T04:35:17;3.95;;;2.10;;
5393;SDS011;2720;52.396;10.064;2023-04-05T04:37:45;4.32;;;2.55;;
5393;SDS011;2720;52.396;10.064;2023-04-05T04:40:17;11.80;;;1.88;;
5393;SDS011;2720;52.396;10.064;2023-04-05T04:42:45;5.38;;;2.80;;
5393;SDS011;2720;52.396;10.064;2023-04-05T04:45:12;4.82;;;2.88;;
5393;SDS011;2720;52.396;10.064;2023-04-05T04:47:41;13.80;;;2.75;;
5393;SDS011;2720;52.396;10.064;2023-04-05T04:50:09;3.97;;;2.28;;
5393;SDS011;2720;52.396;10.064;2023-04-05T04:52:38;4.82;;;2.20;;
5393;SDS011;2720;52.396;10.064;2023-04-05T04:55:06;3.53;;;2.38;;
5393;SDS011;2720;52.396;10.064;2023-04-05T04:57:34;3.15;;;2.20;;
5393;SDS011;2720;52.396;10.064;2023-04-05T05:00:01;5.63;;;2.85;;
5393;SDS011;2720;52.396;10.064;2023-04-05T05:02:36;3.60;;;2.20;;
5393;SDS011;2720;52.396;10.064;2023-04-05T05:05:03;4.95;;;2.33;;
5393;SDS011;2720;52.396;10.064;2023-04-05T05:07:31;3.92;;;2.78;;
5393;SDS011;2720;52.396;10.064;2023-04-05T05:09:59;5.00;;;2.30;;
5393;SDS011;2720;52.396;10.064;2023-04-05T05:12:26;3.55;;;2.08;;
5393;SDS011;2720;52.396;10.064;2023-04-05T05:14:54;3.75;;;2.50;;
5393;SDS011;2720;52.396;10.064;2023-04-05T05:17:21;5.82;;;2.95;;
5393;SDS011;2720;52.396;10.064;2023-04-05T05:19:48;3.60;;;2.70;;
5393;SDS011;2720;52.396;10.064;2023-04-05T05:22:15;3.72;;;2.65;;
5393;SDS011;2720;52.396;10.064;2023-04-05T05:24:42;5.00;;;2.75;;
5393;SDS011;2720;52.396;10.064;2023-04-05T05:27:11;8.55;;;2.45;;
5393;SDS011;2720;52.396;10.064;2023-04-05T05:29:38;6.32;;;2.85;;
5393;SDS011;2720;52.396;10.064;2023-04-05T05:32:05;6.28;;;2.97;;
5393;SDS011;2720;52.396;10.064;2023-04-05T05:34:38;3.17;;;1.92;;
5393;SDS011;2720;52.396;10.064;2023-04-05T05:37:05;9.30;;;1.95;;
5393;SDS011;2720;52.396;10.064;2023-04-05T05:39:33;3.13;;;2.10;;
5393;SDS011;2720;52.396;10.064;2023-04-05T05:42:02;4.35;;;2.88;;
5393;SDS011;2720;52.396;10.064;2023-04-05T05:44:30;8.88;;;2.05;;
5393;SDS011;2720;52.396;10.064;2023-04-05T05:46:57;4.03;;;2.35;;
5393;SDS011;2720;52.396;10.064;2023-04-05T05:49:24;5.00;;;2.28;;
5393;SDS011;2720;52.396;10.064;2023-04-05T05:51:51;4.18;;;2.55;;
5393;SDS011;2720;52.396;10.064;2023-04-05T05:54:18;4.70;;;3.53;;
5393;SDS011;2720;52.396;10.064;2023-04-05T05:56:45;3.60;;;2.80;;
5393;SDS011;2720;52.396;10.064;2023-04-05T05:59:12;4.97;;;2.63;;
5393;SDS011;2720;52.396;10.064;2023-04-05T06:01:41;7.65;;;2.67;;
5393;SDS011;2720;52.396;10.064;2023-04-05T06:04:10;9.10;;;2.60;;
5393;SDS011;2720;52.396;10.064;2023-04-05T06:06:37;3.80;;;2.50;;
5393;SDS011;2720;52.396;10.064;2023-04-05T06:09:04;4.78;;;2.80;;
5393;SDS011;2720;52.396;10.064;2023-04-05T06:11:31;7.70;;;3.57;;
5393;SDS011;2720;52.396;10.064;2023-04-05T06:13:58;2.80;;;2.40;;
5393;SDS011;2720;52.396;10.064;2023-04-05T06:16:25;8.48;;;2.80;;
5393;SDS011;2720;52.396;10.064;2023-04-05T06:18:54;5.83;;;2.97;;
5393;SDS011;2720;52.396;10.064;2023-04-05T06:21:21;5.00;;;2.73;;
5393;SDS011;2720;52.396;10.064;2023-04-05T06:23:48;3.67;;;2.60;;
5393;SDS011;2720;52.396;10.064;2023-04-05T06:26:16;12.50;;;4.47;;
5393;SDS011;2720;52.396;10.064;2023-04-05T06:28:44;9.50;;;3.30;;
5393;SDS011;2720;52.396;10.064;2023-04-05T06:31:13;9.47;;;4.00;;
5393;SDS011;2720;52.396;10.064;2023-04-05T06:33:41;19.00;;;3.77;;
5393;SDS011;2720;52.396;10.064;2023-04-05T06:36:10;13.40;;;3.47;;
5393;SDS011;2720;52.396;10.064;2023-04-05T06:38:37;6.20;;;3.60;;
5393;SDS011;2720;52.396;10.064;2023-04-05T06:41:03;7.43;;;4.53;;
5393;SDS011;2720;52.396;10.064;2023-04-05T06:43:30;13.10;;;4.60;;
5393;SDS011;2720;52.396;10.064;2023-04-05T06:45:57;5.97;;;4.33;;
5393;SDS011;2720;52.396;10.064;2023-04-05T06:48:25;5.43;;;2.73;;
5393;SDS011;2720;52.396;10.064;2023-04-05T06:50:56;5.47;;;3.00;;
5393;SDS011;2720;52.396;10.064;2023-04-05T06:53:25;5.77;;;3.27;;
5393;SDS011;2720;52.396;10.064;2023-04-05T06:55:52;3.70;;;2.67;;
5393;SDS011;2720;52.396;10.064;2023-04-05T06:58:20;6.63;;;3.30;;
5393;SDS011;2720;52.396;10.064;2023-04-05T07:00:47;7.00;;;3.80;;
5393;SDS011;2720;52.396;10.064;2023-04-05T07:03:14;4.50;;;3.17;;
5393;SDS011;2720;52.396;10.064;2023-04-05T07:05:48;5.40;;;3.27;;
5393;SDS011;2720;52.396;10.064;2023-04-05T07:08:18;3.97;;;2.60;;
5393;SDS011;2720;52.396;10.064;2023-04-05T07:10:48;9.40;;;3.60;;
5393;SDS011;2720;52.396;10.064;2023-04-05T07:13:16;6.83;;;4.10;;
5393;SDS011;2720;52.396;10.064;2023-04-05T07:15:43;8.47;;;3.10;;
5393;SDS011;2720;52.396;10.064;2023-04-05T07:18:11;13.83;;;4.70;;
5393;SDS011;2720;52.396;10.064;2023-04-05T07:20:39;11.53;;;4.87;;
5393;SDS011;2720;52.396;10.064;2023-04-05T07:23:06;10.00;;;4.87;;
5393;SDS011;2720;52.396;10.064;2023-04-05T07:25:33;7.43;;;4.60;;
5393;SDS011;2720;52.396;10.064;2023-04-05T07:28:02;7.40;;;4.97;;
5393;SDS011;2720;52.396;10.064;2023-04-05T07:30:29;11.63;;;4.30;;
5393;SDS011;2720;52.396;10.064;2023-04-05T07:32:56;10.73;;;4.10;;
5393;SDS011;2720;52.396;10.064;2023-04-05T07:35:23;9.90;;;4.13;;
5393;SDS011;2720;52.396;10.064;2023-04-05T07:37:50;14.27;;;5.27;;
5393;SDS011;2720;52.396;10.064;2023-04-05T07:40:17;15.93;;;6.83;;
5393;SDS011;2720;52.396;10.064;2023-04-05T07:42:45;12.97;;;5.27;;
5393;SDS011;2720;52.396;10.064;2023-04-05T07:45:13;9.77;;;5.73;;
5393;SDS011;2720;52.396;10.064;2023-04-05T07:47:40;12.87;;;6.43;;
5393;SDS011;2720;52.396;10.064;2023-04-05T07:50:07;9.20;;;5.33;;
5393;SDS011;2720;52.396;10.064;2023-04-05T07:52:38;8.77;;;4.73;;
5393;SDS011;2720;52.396;10.064;2023-04-05T07:55:06;7.53;;;4.27;;
5393;SDS011;2720;52.396;10.064;2023-04-05T07:57:34;32.57;;;4.70;;
5393;SDS011;2720;52.396;10.064;2023-04-05T08:00:01;3.37;;;2.83;;
5393;SDS011;2720;52.396;10.064;2023-04-05T08:02:36;4.93;;;3.20;;
5393;SDS011;2720;52.396;10.064;2023-04-05T08:05:03;7.50;;;3.90;;
5393;SDS011;2720;52.396;10.064;2023-04-05T08:07:30;6.93;;;3.90;;
5393;SDS011;2720;52.396;10.064;2023-04-05T08:09:57;7.80;;;3.77;;
5393;SDS011;2720;52.396;10.064;2023-04-05T08:12:25;8.90;;;3.87;;
5393;SDS011;2720;52.396;10.064;2023-04-05T08:14:52;7.93;;;3.40;;
5393;SDS011;2720;52.396;10.064;2023-04-05T08:17:19;6.80;;;3.53;;
5393;SDS011;2720;52.396;10.064;2023-04-05T08:19:47;10.43;;;3.33;;
5393;SDS011;2720;52.396;10.064;2023-04-05T08:22:16;9.00;;;3.27;;
5393;SDS011;2720;52.396;10.064;2023-04-05T08:24:43;9.27;;;4.03;;
5393;SDS011;2720;52.396;10.064;2023-04-05T08:27:10;9.17;;;3.73;;
5393;SDS011;2720;52.396;10.064;2023-04-05T08:29:37;5.80;;;3.60;;
5393;SDS011;2720;52.396;10.064;2023-04-05T08:32:04;5.47;;;3.63;;
5393;SDS011;2720;52.396;10.064;2023-04-05T08:34:32;5.30;;;3.90;;
5393;SDS011;2720;52.396;10.064;2023-04-05T08:37:01;9.70;;;3.87;;
5393;SDS011;2720;52.396;10.064;2023-04-05T08:39:28;22.33;;;4.20;;
5393;SDS011;2720;52.396;10.064;2023-04-05T08:41:58;8.93;;;3.83;;
5393;SDS011;2720;52.396;10.064;2023-04-05T08:44:29;6.33;;;3.33;;
5393;SDS011;2720;52.396;10.064;2023-04-05T08:46:57;7.27;;;3.70;;
5393;SDS011;2720;52.396;10.064;2023-04-05T08:49:25;6.33;;;3.27;;
5393;SDS011;2720;52.396;10.064;2023-04-05T08:51:52;8.73;;;3.37;;
5393;SDS011;2720;52.396;10.064;2023-04-05T08:54:22;6.40;;;3.83;;
5393;SDS011;2720;52.396;10.064;2023-04-05T08:56:49;3.57;;;2.97;;
5393;SDS011;2720;52.396;10.064;2023-04-05T08:59:18;4.20;;;3.13;;
5393;SDS011;2720;52.396;10.064;2023-04-05T09:01:45;5.50;;;3.30;;
5393;SDS011;2720;52.396;10.064;2023-04-05T09:04:14;8.07;;;3.40;;
5393;SDS011;2720;52.396;10.064;2023-04-05T09:06:43;7.30;;;3.90;;
5393;SDS011;2720;52.396;10.064;2023-04-05T09:09:11;4.07;;;2.73;;
5393;SDS011;2720;52.396;10.064;2023-04-05T09:11:41;4.10;;;2.67;;
5393;SDS011;2720;52.396;10.064;2023-04-05T09:14:08;3.33;;;2.37;;
5393;SDS011;2720;52.396;10.064;2023-04-05T09:16:36;7.90;;;2.53;;
5393;SDS011;2720;52.396;10.064;2023-04-05T09:19:04;5.10;;;2.40;;
5393;SDS011;2720;52.396;10.064;2023-04-05T09:24:29;2.93;;;2.37;;
5393;SDS011;2720;52.396;10.064;2023-04-05T09:27:07;4.50;;;2.03;;
5393;SDS011;2720;52.396;10.064;2023-04-05T09:29:35;4.70;;;2.73;;
5393;SDS011;2720;52.396;10.064;2023-04-05T09:32:03;8.27;;;2.07;;
5393;SDS011;2720;52.396;10.064;2023-04-05T09:34:31;6.30;;;2.33;;
5393;SDS011;2720;52.396;10.064;2023-04-05T09:37:01;2.50;;;2.10;;
5393;SDS011;2720;52.396;10.064;2023-04-05T09:39:29;4.13;;;2.30;;
5393;SDS011;2720;52.396;10.064;2023-04-05T09:42:04;4.60;;;2.00;;
5393;SDS011;2720;52.396;10.064;2023-04-05T09:44:48;3.77;;;1.87;;
5393;SDS011;2720;52.396;10.064;2023-04-05T09:47:16;5.47;;;2.17;;
5393;SDS011;2720;52.396;10.064;2023-04-05T09:49:44;4.17;;;1.60;;
5393;SDS011;2720;52.396;10.064;2023-04-05T09:52:20;3.17;;;2.00;;
5393;SDS011;2720;52.396;10.064;2023-04-05T09:54:47;3.70;;;1.77;;
5393;SDS011;2720;52.396;10.064;2023-04-05T09:57:17;2.43;;;1.80;;
5393;SDS011;2720;52.396;10.064;2023-04-05T09:59:44;4.87;;;1.97;;
5393;SDS011;2720;52.396;10.064;2023-04-05T10:02:12;6.73;;;2.40;;
5393;SDS011;2720;52.396;10.064;2023-04-05T10:04:39;5.77;;;1.93;;
5393;SDS011;2720;52.396;10.064;2023-04-05T10:07:07;6.77;;;3.00;;
5393;SDS011;2720;52.396;10.064;2023-04-05T10:09:37;10.20;;;3.10;;
5393;SDS011;2720;52.396;10.064;2023-04-05T10:12:05;9.80;;;2.50;;
5393;SDS011;2720;52.396;10.064;2023-04-05T10:14:34;2.80;;;1.17;;
5393;SDS011;2720;52.396;10.064;2023-04-05T10:17:08;4.20;;;1.70;;
5393;SDS011;2720;52.396;10.064;2023-04-05T10:19:40;5.00;;;2.00;;
5393;SDS011;2720;52.396;10.064;2023-04-05T10:22:19;4.30;;;1.70;;
5393;SDS011;2720;52.396;10.064;2023-04-05T10:24:50;2.07;;;1.53;;
5393;SDS011;2720;52.396;10.064;2023-04-05T10:27:21;2.70;;;1.93;;
5393;SDS011;2720;52.396;10.064;2023-04-05T10:29:52;3.27;;;2.30;;
5393;SDS011;2720;52.396;10.064;2023-04-05T10:32:29;6.03;;;2.10;;
5393;SDS011;2720;52.396;10.064;2023-04-05T10:35:24;10.20;;;2.60;;
5393;SDS011;2720;52.396;10.064;2023-04-05T10:38:00;5.90;;;1.93;;
5393;SDS011;2720;52.396;10.064;2023-04-05T10:40:37;6.40;;;2.07;;
5393;SDS011;2720;52.396;10.064;2023-04-05T10:43:14;5.87;;;2.17;;
5393;SDS011;2720;52.396;10.064;2023-04-05T10:45:44;6.47;;;2.67;;
5393;SDS011;2720;52.396;10.064;2023-04-05T10:48:15;6.07;;;2.17;;
5393;SDS011;2720;52.396;10.064;2023-04-05T10:50:49;4.07;;;2.53;;
5393;SDS011;2720;52.396;10.064;2023-04-05T10:53:17;5.40;;;2.23;;
5393;SDS011;2720;52.396;10.064;2023-04-05T10:55:46;5.70;;;2.30;;
5393;SDS011;2720;52.396;10.064;2023-04-05T10:58:15;5.43;;;2.43;;
5393;SDS011;2720;52.396;10.064;2023-04-05T11:00:43;3.80;;;2.10;;
5393;SDS011;2720;52.396;10.064;2023-04-05T11:03:20;5.37;;;2.47;;
5393;SDS011;2720;52.396;10.064;2023-04-05T11:06:16;4.50;;;2.77;;
5393;SDS011;2720;52.396;10.064;2023-04-05T11:08:45;5.57;;;1.83;;
5393;SDS011;2720;52.396;10.064;2023-04-05T11:11:13;3.70;;;2.03;;
5393;SDS011;2720;52.396;10.064;2023-04-05T11:13:51;4.80;;;1.93;;
5393;SDS011;2720;52.396;10.064;2023-04-05T11:16:21;3.10;;;1.83;;
5393;SDS011;2720;52.396;10.064;2023-04-05T11:18:49;6.20;;;2.53;;
5393;SDS011;2720;52.396;10.064;2023-04-05T11:21:18;7.70;;;2.50;;
5393;SDS011;2720;52.396;10.064;2023-04-05T11:24:00;2.37;;;1.90;;
5393;SDS011;2720;52.396;10.064;2023-04-05T11:32:14;4.93;;;2.17;;
5393;SDS011;2720;52.396;10.064;2023-04-05T11:34:41;3.93;;;2.33;;
5393;SDS011;2720;52.396;10.064;2023-04-05T11:37:09;4.90;;;1.63;;
5393;SDS011;2720;52.396;10.064;2023-04-05T11:39:36;4.60;;;2.00;;
5393;SDS011;2720;52.396;10.064;2023-04-05T11:42:04;8.73;;;2.30;;
5393;SDS011;2720;52.396;10.064;2023-04-05T11:44:42;4.03;;;1.97;;
5393;SDS011;2720;52.396;10.064;2023-04-05T11:47:10;2.20;;;1.83;;
5393;SDS011;2720;52.396;10.064;2023-04-05T11:49:39;3.80;;;2.03;;
5393;SDS011;2720;52.396;10.064;2023-04-05T11:52:10;4.57;;;2.80;;
5393;SDS011;2720;52.396;10.064;2023-04-05T11:54:39;7.97;;;2.73;;
5393;SDS011;2720;52.396;10.064;2023-04-05T11:57:13;8.23;;;2.47;;
5393;SDS011;2720;52.396;10.064;2023-04-05T11:59:41;10.43;;;2.50;;
5393;SDS011;2720;52.396;10.064;2023-04-05T12:02:09;12.77;;;2.40;;
5393;SDS011;2720;52.396;10.064;2023-04-05T12:04:36;5.40;;;2.37;;
5393;SDS011;2720;52.396;10.064;2023-04-05T12:07:09;6.50;;;3.67;;
5393;SDS011;2720;52.396;10.064;2023-04-05T12:12:26;5.70;;;2.00;;
5393;SDS011;2720;52.396;10.064;2023-04-05T12:14:59;7.67;;;2.87;;
5393;SDS011;2720;52.396;10.064;2023-04-05T12:17:36;5.40;;;2.37;;
5393;SDS011;2720;52.396;10.064;2023-04-05T12:20:04;3.80;;;2.03;;
5393;SDS011;2720;52.396;10.064;2023-04-05T12:22:34;2.23;;;2.00;;
5393;SDS011;2720;52.396;10.064;2023-04-05T12:25:02;3.53;;;2.43;;
5393;SDS011;2720;52.396;10.064;2023-04-05T12:27:30;3.43;;;2.13;;
5393;SDS011;2720;52.396;10.064;2023-04-05T12:30:06;2.67;;;1.80;;
5393;SDS011;2720;52.396;10.064;2023-04-05T12:32:45;3.60;;;2.30;;
5393;SDS011;2720;52.396;10.064;2023-04-05T12:35:16;5.13;;;2.00;;
5393;SDS011;2720;52.396;10.064;2023-04-05T12:37:45;4.70;;;2.50;;
5393;SDS011;2720;52.396;10.064;2023-04-05T12:40:18;2.87;;;2.23;;
5393;SDS011;2720;52.396;10.064;2023-04-05T12:42:46;4.87;;;2.40;;
5393;SDS011;2720;52.396;10.064;2023-04-05T12:45:13;4.93;;;2.13;;
5393;SDS011;2720;52.396;10.064;2023-04-05T12:47:48;4.33;;;2.20;;
5393;SDS011;2720;52.396;10.064;2023-04-05T12:50:17;4.13;;;2.50;;
5393;SDS011;2720;52.396;10.064;2023-04-05T12:52:52;3.87;;;2.30;;
5393;SDS011;2720;52.396;10.064;2023-04-05T12:55:20;5.50;;;2.50;;
5393;SDS011;2720;52.396;10.064;2023-04-05T12:57:48;4.37;;;2.30;;
5393;SDS011;2720;52.396;10.064;2023-04-05T13:00:19;4.33;;;2.60;;
5393;SDS011;2720;52.396;10.064;2023-04-05T13:02:50;2.50;;;2.30;;
5393;SDS011;2720;52.396;10.064;2023-04-05T13:05:21;3.50;;;2.10;;
5393;SDS011;2720;52.396;10.064;2023-04-05T13:07:49;2.30;;;1.83;;
5393;SDS011;2720;52.396;10.064;2023-04-05T13:10:18;3.67;;;2.20;;
5393;SDS011;2720;52.396;10.064;2023-04-05T13:12:45;2.50;;;2.30;;
5393;SDS011;2720;52.396;10.064;2023-04-05T13:15:13;3.23;;;2.00;;
5393;SDS011;2720;52.396;10.064;2023-04-05T13:17:40;5.43;;;2.17;;
5393;SDS011;2720;52.396;10.064;2023-04-05T13:20:08;4.47;;;2.10;;
5393;SDS011;2720;52.396;10.064;2023-04-05T13:22:35;3.60;;;2.33;;
5393;SDS011;2720;52.396;10.064;2023-04-05T13:25:02;4.10;;;2.47;;
5393;SDS011;2720;52.396;10.064;2023-04-05T13:27:31;6.07;;;2.20;;
5393;SDS011;2720;52.396;10.064;2023-04-05T13:29:58;3.80;;;2.33;;
5393;SDS011;2720;52.396;10.064;2023-04-05T13:32:26;3.53;;;2.20;;
5393;SDS011;2720;52.396;10.064;2023-04-05T13:34:53;4.67;;;2.03;;
5393;SDS011;2720;52.396;10.064;2023-04-05T13:37:20;2.77;;;2.23;;
5393;SDS011;2720;52.396;10.064;2023-04-05T13:39:47;7.97;;;2.70;;
5393;SDS011;2720;52.396;10.064;2023-04-05T13:42:14;5.50;;;2.00;;
5393;SDS011;2720;52.396;10.064;2023-04-05T13:44:42;6.40;;;2.20;;
5393;SDS011;2720;52.396;10.064;2023-04-05T13:47:09;3.20;;;2.47;;
5393;SDS011;2720;52.396;10.064;2023-04-05T13:49:38;5.80;;;2.53;;
5393;SDS011;2720;52.396;10.064;2023-04-05T13:52:05;4.10;;;2.00;;
5393;SDS011;2720;52.396;10.064;2023-04-05T13:54:32;4.60;;;2.40;;
5393;SDS011;2720;52.396;10.064;2023-04-05T13:56:59;4.60;;;2.50;;
5393;SDS011;2720;52.396;10.064;2023-04-05T13:59:26;6.90;;;2.73;;
5393;SDS011;2720;52.396;10.064;2023-04-05T14:01:54;5.10;;;2.50;;
5393;SDS011;2720;52.396;10.064;2023-04-05T14:04:21;5.40;;;1.73;;
5393;SDS011;2720;52.396;10.064;2023-04-05T14:06:48;5.10;;;2.60;;
5393;SDS011;2720;52.396;10.064;2023-04-05T14:09:15;3.30;;;2.27;;
5393;SDS011;2720;52.396;10.064;2023-04-05T14:11:42;4.80;;;2.43;;
5393;SDS011;2720;52.396;10.064;2023-04-05T14:14:09;2.93;;;1.80;;
5393;SDS011;2720;52.396;10.064;2023-04-05T14:16:36;6.87;;;3.10;;
5393;SDS011;2720;52.396;10.064;2023-04-05T14:19:05;8.37;;;2.80;;
5393;SDS011;2720;52.396;10.064;2023-04-05T14:21:32;2.30;;;2.10;;
5393;SDS011;2720;52.396;10.064;2023-04-05T14:24:01;3.33;;;2.93;;
5393;SDS011;2720;52.396;10.064;2023-04-05T14:26:28;4.17;;;2.37;;
5393;SDS011;2720;52.396;10.064;2023-04-05T14:28:55;5.77;;;2.70;;
5393;SDS011;2720;52.396;10.064;2023-04-05T14:31:22;4.17;;;2.23;;
5393;SDS011;2720;52.396;10.064;2023-04-05T14:33:50;2.70;;;2.20;;
5393;SDS011;2720;52.396;10.064;2023-04-05T14:36:19;2.60;;;2.40;;
5393;SDS011;2720;52.396;10.064;2023-04-05T14:38:46;2.50;;;2.17;;
5393;SDS011;2720;52.396;10.064;2023-04-05T14:41:13;2.20;;;1.97;;
5393;SDS011;2720;52.396;10.064;2023-04-05T14:43:40;2.77;;;1.90;;
5393;SDS011;2720;52.396;10.064;2023-04-05T14:46:07;2.30;;;2.10;;
5393;SDS011;2720;52.396;10.064;2023-04-05T14:48:34;3.33;;;2.63;;
5393;SDS011;2720;52.396;10.064;2023-04-05T14:51:01;2.73;;;2.10;;
5393;SDS011;2720;52.396;10.064;2023-04-05T14:53:30;12.20;;;2.93;;
5393;SDS011;2720;52.396;10.064;2023-04-05T14:55:58;4.63;;;1.73;;
5393;SDS011;2720;52.396;10.064;2023-04-05T14:58:25;2.43;;;2.23;;
5393;SDS011;2720;52.396;10.064;2023-04-05T15:00:53;4.53;;;2.20;;
5393;SDS011;2720;52.396;10.064;2023-04-05T15:03:21;3.20;;;2.43;;
5393;SDS011;2720;52.396;10.064;2023-04-05T15:05:49;6.10;;;2.60;;
5393;SDS011;2720;52.396;10.064;2023-04-05T15:08:16;4.70;;;2.57;;
5393;SDS011;2720;52.396;10.064;2023-04-05T15:10:45;2.00;;;1.80;;
5393;SDS011;2720;52.396;10.064;2023-04-05T15:13:12;2.37;;;2.17;;
5393;SDS011;2720;52.396;10.064;2023-04-05T15:15:39;5.00;;;2.50;;
5393;SDS011;2720;52.396;10.064;2023-04-05T15:18:06;4.00;;;2.20;;
5393;SDS011;2720;52.396;10.064;2023-04-05T15:20:34;2.47;;;2.07;;
5393;SDS011;2720;52.396;10.064;2023-04-05T15:23:01;2.97;;;2.03;;